createdAt,value
2019-01-10T11:12:22.109Z,2.00
2019-01-10T11:14:52.056Z,1.80
2019-01-10T11:17:21.926Z,1.90
2019-01-10T11:19:51.865Z,1.80
2019-01-10T11:22:21.743Z,1.80
2019-01-10T11:24:51.685Z,1.70
2019-01-10T11:27:22.154Z,1.80
2019-01-10T11:32:59.775Z,1.80
2019-01-10T11:48:13.107Z,1.80
2019-01-10T11:50:43.055Z,1.70
2019-01-10T11:53:12.919Z,1.70
2019-01-10T11:55:42.863Z,1.70
2019-01-10T11:58:12.737Z,1.70
2019-01-10T12:00:42.618Z,1.70
2019-01-10T12:03:12.579Z,1.80
2019-01-10T12:05:47.576Z,1.80
2019-01-10T12:08:14.080Z,1.80
2019-01-10T12:10:44.027Z,1.80
2019-01-10T12:13:14.106Z,1.80
2019-01-10T12:15:44.032Z,1.90
2019-01-10T12:18:13.905Z,1.90
2019-01-10T12:20:43.831Z,1.90
2019-01-10T12:23:13.696Z,1.90
2019-01-10T12:25:43.623Z,1.90
2019-01-10T12:28:13.562Z,2.00
2019-01-10T12:30:43.435Z,2.00
2019-01-10T12:33:13.378Z,1.90
2019-01-10T12:35:43.259Z,2.00
2019-01-10T12:38:13.260Z,2.00
2019-01-10T12:40:43.072Z,1.90
2019-01-10T12:43:13.004Z,1.90
2019-01-10T12:45:42.873Z,1.90
2019-01-10T12:48:12.817Z,1.70
2019-01-10T12:50:42.684Z,1.80
2019-01-10T12:53:12.683Z,1.80
2019-01-10T12:55:42.552Z,1.70
2019-01-10T12:58:12.481Z,1.70
2019-01-10T13:00:42.348Z,1.70
2019-01-10T13:03:12.366Z,1.70
2019-01-10T13:05:42.312Z,1.70
2019-01-10T13:08:12.191Z,1.70
2019-01-10T13:10:42.115Z,1.70
2019-01-10T13:13:12.005Z,1.70
2019-01-10T13:15:42.737Z,1.70
2019-01-10T13:18:12.849Z,1.60
2019-01-10T13:20:42.723Z,1.70
2019-01-10T13:23:12.665Z,1.60
2019-01-10T13:25:42.614Z,1.60
2019-01-10T13:28:12.487Z,1.50
2019-01-10T13:30:43.520Z,1.50
2019-01-10T13:33:13.887Z,1.50
2019-01-10T13:35:45.901Z,1.50
2019-01-10T13:38:15.212Z,1.60
2019-01-10T13:40:45.151Z,1.70
2019-01-10T13:43:15.036Z,1.80
2019-01-10T13:45:46.306Z,1.80
2019-01-10T13:48:16.577Z,1.70
2019-01-10T13:50:46.506Z,1.70
2019-01-10T13:53:16.440Z,1.60
2019-01-10T13:55:46.320Z,1.60
2019-01-10T13:58:16.262Z,1.60
2019-01-10T14:00:46.128Z,1.60
2019-01-10T14:03:16.062Z,1.60
2019-01-10T14:05:45.996Z,1.60
2019-01-10T14:08:15.930Z,1.60
2019-01-10T14:10:45.797Z,1.50
2019-01-10T14:13:15.741Z,1.70
2019-01-10T14:15:45.625Z,1.60
2019-01-10T14:18:15.576Z,1.60
2019-01-10T14:20:45.646Z,1.60
2019-01-10T14:23:15.515Z,1.60
2019-01-10T14:25:45.457Z,1.60
2019-01-10T14:28:15.381Z,1.60
2019-01-10T14:30:45.321Z,1.60
2019-01-10T14:33:15.249Z,1.50
2019-01-10T14:35:45.133Z,1.50
2019-01-10T14:38:15.073Z,1.50
2019-01-10T14:40:44.927Z,1.40
2019-01-10T14:43:14.927Z,1.40
2019-01-10T14:45:44.840Z,1.40
2019-01-10T14:48:14.710Z,1.40
2019-01-10T14:50:44.672Z,1.40
2019-01-10T14:53:14.555Z,1.40
2019-01-10T14:55:44.489Z,1.40
2019-01-10T14:58:14.433Z,1.40
2019-01-10T15:00:44.312Z,1.40
2019-01-10T15:03:14.254Z,1.40
2019-01-10T15:05:44.206Z,1.40
2019-01-10T15:08:14.063Z,1.40
2019-01-10T15:10:43.999Z,1.50
2019-01-10T15:13:13.932Z,1.40
2019-01-10T15:15:43.858Z,1.30
2019-01-10T15:18:13.814Z,1.40
2019-01-10T15:20:43.697Z,1.30
2019-01-10T15:23:13.658Z,1.30
2019-01-10T15:25:43.590Z,1.30
2019-01-10T15:28:13.464Z,1.20
2019-01-10T15:30:43.426Z,1.20
2019-01-10T15:33:13.292Z,1.30
2019-01-10T15:35:43.229Z,1.30
2019-01-10T15:38:13.999Z,1.30
2019-01-10T15:40:44.558Z,1.30
2019-01-10T15:43:14.437Z,1.30
2019-01-10T15:45:44.383Z,1.30
2019-01-10T15:48:14.310Z,1.30
2019-01-10T15:50:44.180Z,1.20
2019-01-10T15:53:14.149Z,1.20
2019-01-10T15:55:44.019Z,1.20
2019-01-10T15:58:13.956Z,1.20
2019-01-10T16:00:43.846Z,1.20
2019-01-10T16:03:13.769Z,1.20
2019-01-10T16:05:43.642Z,1.20
2019-01-10T16:08:13.572Z,1.10
2019-01-10T16:10:43.601Z,1.20
2019-01-10T16:13:13.494Z,1.20
2019-01-10T16:15:43.409Z,1.20
2019-01-10T16:18:13.294Z,1.10
2019-01-10T16:20:43.259Z,1.20
2019-01-10T16:23:13.126Z,1.20
2019-01-10T16:25:43.069Z,1.10
2019-01-10T16:28:12.938Z,1.20
2019-01-10T16:30:42.876Z,1.10
2019-01-10T16:33:12.810Z,1.10
2019-01-10T16:35:42.737Z,1.10
2019-01-10T16:38:12.663Z,1.10
2019-01-10T16:40:42.536Z,1.20
2019-01-10T16:43:12.477Z,1.20
2019-01-10T16:45:42.423Z,1.10
2019-01-10T16:48:12.353Z,1.10
2019-01-10T16:50:42.280Z,1.10
2019-01-10T16:53:12.324Z,1.10
2019-01-10T16:55:42.550Z,1.10
2019-01-10T16:58:12.528Z,1.10
2019-01-10T17:00:42.443Z,1.10
2019-01-10T17:03:12.370Z,1.00
2019-01-10T17:05:42.288Z,1.00
2019-01-10T17:08:12.215Z,1.00
2019-01-10T17:10:43.094Z,1.00
2019-01-10T17:13:13.266Z,1.00
2019-01-10T17:15:43.244Z,1.00
2019-01-10T17:18:13.110Z,1.00
2019-01-10T17:20:43.047Z,1.00
2019-01-10T17:23:12.986Z,1.00
2019-01-10T17:25:44.496Z,1.00
2019-01-10T17:28:14.446Z,0.90
2019-01-10T17:30:45.331Z,1.10
2019-01-10T17:33:15.292Z,1.00
2019-01-10T17:35:45.167Z,1.00
2019-01-10T17:38:15.108Z,0.90
2019-01-10T17:40:45.050Z,1.00
2019-01-10T17:43:14.928Z,1.00
2019-01-10T17:45:45.061Z,0.90
2019-01-10T17:48:14.922Z,0.90
2019-01-10T17:50:44.871Z,1.00
2019-01-10T17:53:14.735Z,0.90
2019-01-10T17:55:44.682Z,0.90
2019-01-10T17:58:14.549Z,0.90
2019-01-10T18:00:44.435Z,0.90
2019-01-10T18:03:15.087Z,0.90
2019-01-10T18:05:45.073Z,0.80
2019-01-10T18:08:16.286Z,0.80
2019-01-10T18:10:46.221Z,0.70
2019-01-10T18:13:16.155Z,0.80
2019-01-10T18:15:46.034Z,0.70
2019-01-10T18:18:15.970Z,0.70
2019-01-10T18:20:46.877Z,0.70
2019-01-10T18:23:16.788Z,0.70
2019-01-10T18:25:46.716Z,0.70
2019-01-10T18:28:16.600Z,0.80
2019-01-10T18:30:46.545Z,0.70
2019-01-10T18:33:18.068Z,0.70
2019-01-10T18:35:50.601Z,0.70
2019-01-10T18:38:22.123Z,0.60
2019-01-10T18:40:55.746Z,0.50
2019-01-10T18:43:26.057Z,0.50
2019-01-10T18:45:56.229Z,0.60
2019-01-10T18:48:26.221Z,0.50
2019-01-10T18:51:00.013Z,0.50
2019-01-10T18:53:30.034Z,0.50
2019-01-10T18:55:59.920Z,0.60
2019-01-10T18:58:29.879Z,0.60
2019-01-10T19:01:01.575Z,0.50
2019-01-10T19:03:31.584Z,0.50
2019-01-10T19:06:01.540Z,0.70
2019-01-10T19:08:31.443Z,0.50
2019-01-10T19:11:01.396Z,0.50
2019-01-10T19:13:31.343Z,0.50
2019-01-10T19:16:01.236Z,0.50
2019-01-10T19:18:31.196Z,0.60
2019-01-10T19:21:01.094Z,0.60
2019-01-10T19:23:31.044Z,0.60
2019-01-10T19:26:00.958Z,0.60
2019-01-10T19:28:30.878Z,0.60
2019-01-10T19:31:00.842Z,0.40
2019-01-10T19:33:30.716Z,0.40
2019-01-10T19:36:00.657Z,0.40
2019-01-10T19:38:30.539Z,0.40
2019-01-10T19:41:00.531Z,0.40
2019-01-10T19:43:30.469Z,0.40
2019-01-10T19:46:00.421Z,0.50
2019-01-10T19:48:30.317Z,0.50
2019-01-10T19:51:00.263Z,0.40
2019-01-10T19:53:30.142Z,0.40
2019-01-10T19:56:00.094Z,0.50
2019-01-10T19:58:29.968Z,0.40
2019-01-10T20:00:59.965Z,0.50
2019-01-10T20:03:29.846Z,0.40
2019-01-10T20:05:59.729Z,0.40
2019-01-10T20:08:29.679Z,0.50
2019-01-10T20:10:59.497Z,0.40
2019-01-10T20:13:29.389Z,0.30
2019-01-10T20:15:59.184Z,0.40
2019-01-10T20:18:28.982Z,0.50
2019-01-10T20:20:58.890Z,0.40
2019-01-10T20:23:28.814Z,0.40
2019-01-10T20:25:58.630Z,0.30
2019-01-10T20:28:28.389Z,0.20
2019-01-10T20:30:58.184Z,0.30
2019-01-10T20:33:27.928Z,0.30
2019-01-10T20:35:57.732Z,0.30
2019-01-10T20:38:27.470Z,0.30
2019-01-10T20:40:57.861Z,0.30
2019-01-10T20:43:28.135Z,0.10
2019-01-10T20:45:58.021Z,0.10
2019-01-10T20:48:27.910Z,0.20
2019-01-10T20:50:59.057Z,0.20
2019-01-10T20:53:32.036Z,0.20
2019-01-10T20:56:05.284Z,0.10
2019-01-10T20:58:36.590Z,0.10
2019-01-10T21:01:08.800Z,0.10
2019-01-10T21:03:39.488Z,0.10
2019-01-10T21:06:11.541Z,0.00
2019-01-10T21:08:41.426Z,-0.10
2019-01-10T21:11:12.605Z,-0.10
2019-01-10T21:13:45.609Z,-0.20
2019-01-10T21:16:16.709Z,-0.30
2019-01-10T21:18:47.701Z,-0.40
2019-01-10T21:21:18.394Z,-0.40
2019-01-10T21:23:48.289Z,-0.40
2019-01-10T21:26:18.082Z,-0.50
2019-01-10T21:28:49.261Z,-0.50
2019-01-10T21:31:19.909Z,-0.50
2019-01-10T21:33:50.758Z,-0.60
2019-01-10T21:36:21.200Z,-0.70
2019-01-10T21:38:51.374Z,-0.80
2019-01-10T21:41:22.236Z,-0.90
2019-01-10T21:43:53.555Z,-1.00
2019-01-10T21:46:23.369Z,-1.00
2019-01-10T21:48:53.165Z,-1.10
2019-01-10T21:51:22.945Z,-1.20
2019-01-10T21:53:52.845Z,-1.30
2019-01-10T21:56:22.586Z,-1.30
2019-01-10T21:58:52.392Z,-1.40
2019-01-10T22:01:22.135Z,-1.40
2019-01-10T22:03:51.973Z,-1.40
2019-01-10T22:06:21.709Z,-1.40
2019-01-10T22:08:51.508Z,-1.50
2019-01-10T22:11:21.313Z,-1.60
2019-01-10T22:13:51.091Z,-1.40
2019-01-10T22:16:22.168Z,-1.50
2019-01-10T22:18:52.050Z,-1.40
2019-01-10T22:21:22.985Z,-1.50
2019-01-10T22:23:52.730Z,-1.50
2019-01-10T22:26:22.591Z,-1.40
2019-01-10T22:28:52.395Z,-1.40
2019-01-10T22:31:23.604Z,-1.50
2019-01-10T22:33:53.588Z,-1.50
2019-01-10T22:36:23.335Z,-1.60
2019-01-10T22:38:53.138Z,-1.50
2019-01-10T22:41:22.882Z,-1.70
2019-01-10T22:43:52.699Z,-1.80
2019-01-10T22:46:22.501Z,-1.80
2019-01-10T22:48:52.235Z,-1.90
2019-01-10T22:51:22.038Z,-1.80
2019-01-10T22:53:51.782Z,-1.80
2019-01-10T22:56:21.583Z,-1.70
2019-01-10T22:58:51.409Z,-1.70
2019-01-10T23:01:25.138Z,-1.70
2019-01-10T23:03:54.942Z,-1.70
2019-01-10T23:06:24.678Z,-1.70
2019-01-10T23:08:54.489Z,-1.70
2019-01-10T23:11:24.395Z,-1.60
2019-01-10T23:13:56.696Z,-1.60
2019-01-10T23:16:26.596Z,-1.60
2019-01-10T23:18:56.362Z,-1.60
2019-01-10T23:21:26.161Z,-1.50
2019-01-10T23:24:01.243Z,-1.30
2019-01-10T23:26:31.043Z,-1.30
2019-01-10T23:29:00.849Z,-1.30
2019-01-10T23:31:30.596Z,-1.30
2019-01-10T23:34:05.888Z,-1.30
2019-01-10T23:36:35.690Z,-1.20
2019-01-10T23:39:14.007Z,-1.20
2019-01-10T23:41:43.816Z,-1.10
2019-01-10T23:44:13.559Z,-1.20
2019-01-10T23:46:43.364Z,-1.20
2019-01-10T23:49:13.106Z,-1.20
2019-01-10T23:51:42.915Z,-1.20
2019-01-10T23:54:12.673Z,-1.20
2019-01-10T23:56:42.605Z,-1.20
2019-01-10T23:59:12.355Z,-1.10
